createdAt,value
2019-05-07T00:00:43.582Z,8.99
2019-05-07T00:01:42.317Z,8.99
2019-05-07T00:02:42.808Z,8.95
2019-05-07T00:03:42.118Z,8.94
2019-05-07T00:04:46.493Z,8.99
2019-05-07T00:05:42.818Z,8.99
2019-05-07T00:06:43.436Z,8.94
2019-05-07T00:07:42.501Z,8.89
2019-05-07T00:08:44.610Z,8.80
2019-05-07T00:09:43.008Z,8.77
2019-05-07T00:10:42.449Z,8.56
2019-05-07T00:11:42.585Z,8.45
2019-05-07T00:12:43.125Z,8.38
2019-05-07T00:13:44.120Z,8.37
2019-05-07T00:14:43.014Z,8.28
2019-05-07T00:15:47.362Z,8.28
2019-05-07T00:16:42.244Z,8.30
2019-05-07T00:17:42.906Z,8.29
2019-05-07T00:18:42.946Z,8.22
2019-05-07T00:19:43.191Z,8.29
2019-05-07T00:20:42.292Z,8.22
2019-05-07T00:21:42.273Z,8.15
2019-05-07T00:22:41.979Z,8.12
2019-05-07T00:23:43.312Z,8.11
2019-05-07T00:24:42.712Z,8.01
2019-05-07T00:25:42.183Z,7.92
2019-05-07T00:26:46.227Z,7.92
2019-05-07T00:27:42.718Z,7.92
2019-05-07T00:28:43.228Z,7.82
2019-05-07T00:29:42.890Z,7.77
2019-05-07T00:30:42.457Z,7.82
2019-05-07T00:31:41.972Z,7.74
2019-05-07T00:32:42.421Z,7.72
2019-05-07T00:33:43.283Z,7.74
2019-05-07T00:34:42.470Z,7.75
2019-05-07T00:35:42.873Z,7.69
2019-05-07T00:36:42.089Z,7.60
2019-05-07T00:37:46.105Z,7.63
2019-05-07T00:38:42.721Z,7.68
2019-05-07T00:39:42.396Z,7.63
2019-05-07T00:40:42.558Z,7.60
2019-05-07T00:41:42.687Z,7.67
2019-05-07T00:42:42.128Z,7.61
2019-05-07T00:43:42.881Z,7.67
2019-05-07T00:44:42.245Z,7.67
2019-05-07T00:45:42.097Z,7.55
2019-05-07T00:46:42.723Z,7.55
2019-05-07T00:47:42.561Z,7.58
2019-05-07T00:48:45.979Z,7.53
2019-05-07T00:49:42.585Z,7.58
2019-05-07T00:50:42.061Z,7.68
2019-05-07T00:51:42.436Z,7.72
2019-05-07T00:52:42.886Z,7.61
2019-05-07T00:53:42.390Z,7.60
2019-05-07T00:54:42.233Z,7.60
2019-05-07T00:55:42.297Z,7.67
2019-05-07T00:56:42.903Z,7.64
2019-05-07T00:57:42.824Z,7.61
2019-05-07T00:58:42.800Z,7.74
2019-05-07T00:59:45.865Z,7.63
2019-05-07T01:00:42.038Z,7.69
2019-05-07T01:01:43.057Z,7.60
2019-05-07T01:02:42.950Z,7.64
2019-05-07T01:03:42.442Z,7.52
2019-05-07T01:04:42.263Z,7.58
2019-05-07T01:05:43.002Z,7.57
2019-05-07T01:06:42.435Z,7.49
2019-05-07T01:07:41.940Z,7.42
2019-05-07T01:08:42.906Z,7.43
2019-05-07T01:09:42.952Z,7.48
2019-05-07T01:10:45.729Z,7.37
2019-05-07T01:11:42.714Z,7.46
2019-05-07T01:12:42.341Z,7.37
2019-05-07T01:13:42.952Z,7.42
2019-05-07T01:14:42.020Z,7.42
2019-05-07T01:15:42.763Z,7.40
2019-05-07T01:16:42.125Z,7.40
2019-05-07T01:17:42.525Z,7.40
2019-05-07T01:18:42.084Z,7.43
2019-05-07T01:19:42.329Z,7.39
2019-05-07T01:20:42.248Z,7.42
2019-05-07T01:21:45.604Z,7.28
2019-05-07T01:22:42.460Z,7.34
2019-05-07T01:23:42.590Z,7.31
2019-05-07T01:24:42.804Z,7.25
2019-05-07T01:25:42.832Z,7.27
2019-05-07T01:26:42.583Z,7.31
2019-05-07T01:27:42.571Z,7.28
2019-05-07T01:28:42.145Z,7.40
2019-05-07T01:29:40.490Z,7.46
2019-05-07T01:30:40.489Z,7.43
2019-05-07T01:31:40.485Z,7.40
2019-05-07T01:32:45.476Z,7.35
2019-05-07T01:33:42.399Z,7.43
2019-05-07T01:34:40.432Z,7.48
2019-05-07T01:35:42.358Z,7.45
2019-05-07T01:36:42.600Z,7.43
2019-05-07T01:37:42.195Z,7.37
2019-05-07T01:38:42.560Z,7.32
2019-05-07T01:39:42.208Z,7.32
2019-05-07T01:40:42.651Z,7.28
2019-05-07T01:41:42.002Z,7.32
2019-05-07T01:42:42.392Z,7.32
2019-05-07T01:43:45.351Z,7.30
2019-05-07T01:44:42.017Z,7.27
2019-05-07T01:45:46.472Z,7.37
2019-05-07T01:46:42.232Z,7.25
2019-05-07T01:47:42.346Z,7.28
2019-05-07T01:48:40.273Z,7.21
2019-05-07T01:49:42.155Z,7.13
2019-05-07T01:50:40.261Z,7.15
2019-05-07T01:51:42.242Z,7.16
2019-05-07T01:52:42.587Z,7.10
2019-05-07T01:53:40.217Z,7.05
2019-05-07T01:54:47.323Z,7.10
2019-05-07T01:55:42.623Z,7.09
2019-05-07T01:56:42.603Z,7.09
2019-05-07T01:57:42.123Z,7.10
2019-05-07T01:58:42.328Z,6.98
2019-05-07T01:59:42.497Z,6.99
2019-05-07T02:00:42.338Z,6.77
2019-05-07T02:01:42.727Z,6.71
2019-05-07T02:02:40.115Z,6.71
2019-05-07T02:03:42.024Z,6.73
2019-05-07T02:04:40.092Z,6.71
2019-05-07T02:05:45.141Z,6.69
2019-05-07T02:06:40.081Z,6.58
2019-05-07T02:07:40.069Z,6.59
2019-05-07T02:08:42.114Z,6.54
2019-05-07T02:09:42.342Z,6.46
2019-05-07T02:10:40.024Z,6.37
2019-05-07T02:11:42.124Z,6.33
2019-05-07T02:12:40.003Z,6.36
2019-05-07T02:13:41.977Z,6.33
2019-05-07T02:14:42.130Z,6.40
2019-05-07T02:15:39.967Z,6.41
2019-05-07T02:16:44.994Z,6.40
2019-05-07T02:17:39.950Z,6.37
2019-05-07T02:18:42.272Z,6.33
2019-05-07T02:19:42.373Z,6.31
2019-05-07T02:20:39.917Z,6.33
2019-05-07T02:21:42.153Z,6.34
2019-05-07T02:22:39.892Z,6.36
2019-05-07T02:23:39.880Z,6.27
2019-05-07T02:24:39.868Z,6.33
2019-05-07T02:25:41.852Z,6.27
2019-05-07T02:26:39.878Z,6.41
2019-05-07T02:27:44.870Z,6.48
2019-05-07T02:28:39.853Z,6.46
2019-05-07T02:29:39.826Z,6.51
2019-05-07T02:30:39.802Z,6.48
2019-05-07T02:31:39.799Z,6.51
2019-05-07T02:32:42.947Z,6.56
2019-05-07T02:33:43.092Z,6.55
2019-05-07T02:34:39.774Z,6.61
2019-05-07T02:35:39.747Z,6.58
2019-05-07T02:36:42.951Z,6.56
2019-05-07T02:37:48.640Z,6.49
2019-05-07T02:38:45.755Z,6.46
2019-05-07T02:39:39.703Z,6.44
2019-05-07T02:40:39.689Z,6.43
2019-05-07T02:41:39.677Z,6.54
2019-05-07T02:42:39.683Z,6.55
2019-05-07T02:43:39.654Z,6.64
2019-05-07T02:44:39.645Z,6.56
2019-05-07T02:45:39.637Z,6.59
2019-05-07T02:46:39.630Z,6.64
2019-05-07T02:47:39.629Z,6.64
2019-05-07T02:48:42.561Z,6.56
2019-05-07T02:49:44.623Z,6.67
2019-05-07T02:50:39.575Z,6.67
2019-05-07T02:51:43.155Z,6.59
2019-05-07T02:52:39.564Z,6.64
2019-05-07T02:53:39.549Z,6.58
2019-05-07T02:54:39.530Z,6.61
2019-05-07T02:55:39.517Z,6.59
2019-05-07T02:56:42.987Z,6.64
2019-05-07T02:57:39.510Z,6.40
2019-05-07T02:58:39.486Z,6.38
2019-05-07T02:59:39.477Z,6.34
2019-05-07T03:00:44.496Z,6.22
2019-05-07T03:01:39.451Z,6.28
2019-05-07T03:02:39.456Z,6.28
2019-05-07T03:03:39.432Z,6.25
2019-05-07T03:04:39.428Z,6.19
2019-05-07T03:05:39.408Z,6.17
2019-05-07T03:06:39.398Z,6.17
2019-05-07T03:07:42.527Z,6.18
2019-05-07T03:08:39.376Z,6.12
2019-05-07T03:09:42.807Z,6.12
2019-05-07T03:10:39.353Z,6.14
2019-05-07T03:11:44.368Z,6.09
2019-05-07T03:12:39.346Z,6.12
2019-05-07T03:13:39.319Z,6.17
2019-05-07T03:14:39.310Z,6.14
2019-05-07T03:15:39.301Z,6.11
2019-05-07T03:16:44.269Z,6.14
2019-05-07T03:17:42.919Z,5.94
2019-05-07T03:18:39.263Z,6.09
2019-05-07T03:19:39.277Z,6.00
2019-05-07T03:20:39.252Z,6.11
2019-05-07T03:21:39.232Z,5.96
2019-05-07T03:22:44.250Z,6.01
2019-05-07T03:23:39.208Z,5.97
2019-05-07T03:24:39.196Z,5.97
2019-05-07T03:25:39.187Z,6.08
2019-05-07T03:26:39.177Z,6.08
2019-05-07T03:27:39.164Z,6.03
2019-05-07T03:28:39.162Z,5.94
2019-05-07T03:29:39.163Z,6.14
2019-05-07T03:30:39.131Z,5.91
2019-05-07T03:31:39.137Z,6.11
2019-05-07T03:32:40.483Z,6.03
2019-05-07T03:33:47.290Z,5.97
2019-05-07T03:34:39.088Z,6.09
2019-05-07T03:35:39.092Z,6.18
2019-05-07T03:36:39.232Z,6.12
2019-05-07T03:37:39.067Z,6.11
2019-05-07T03:38:39.059Z,6.14
2019-05-07T03:39:39.050Z,6.12
2019-05-07T03:40:39.020Z,6.17
2019-05-07T03:41:39.014Z,6.11
2019-05-07T03:42:38.996Z,6.14
2019-05-07T03:43:39.006Z,6.11
2019-05-07T03:44:44.703Z,6.15
2019-05-07T03:45:38.971Z,6.18
2019-05-07T03:46:53.152Z,6.17
2019-05-07T03:47:39.939Z,6.09
2019-05-07T03:48:38.945Z,6.08
2019-05-07T03:49:38.916Z,6.06
2019-05-07T03:50:38.916Z,5.96
2019-05-07T03:51:38.894Z,5.90
2019-05-07T03:52:38.881Z,5.79
2019-05-07T03:53:38.895Z,5.75
2019-05-07T03:54:38.865Z,5.67
2019-05-07T03:55:44.886Z,5.58
2019-05-07T03:56:38.838Z,5.64
2019-05-07T03:57:38.825Z,5.61
2019-05-07T03:58:38.828Z,5.54
2019-05-07T03:59:38.816Z,5.63
2019-05-07T04:00:38.794Z,5.60
2019-05-07T04:01:38.779Z,5.58
2019-05-07T04:02:38.773Z,5.67
2019-05-07T04:03:38.758Z,5.72
2019-05-07T04:04:38.765Z,5.71
2019-05-07T04:05:38.765Z,5.64
2019-05-07T04:06:43.748Z,5.71
2019-05-07T04:07:38.714Z,5.58
2019-05-07T04:08:38.702Z,5.65
2019-05-07T04:09:38.702Z,5.72
2019-05-07T04:10:38.684Z,5.72
2019-05-07T04:11:38.670Z,5.75
2019-05-07T04:12:38.656Z,5.76
2019-05-07T04:13:38.647Z,5.67
2019-05-07T04:14:38.644Z,5.75
2019-05-07T04:15:38.628Z,5.75
2019-05-07T04:16:38.613Z,5.75
2019-05-07T04:17:43.632Z,5.79
2019-05-07T04:18:38.591Z,5.75
2019-05-07T04:19:38.592Z,5.85
2019-05-07T04:20:39.453Z,5.82
2019-05-07T04:21:38.556Z,5.91
2019-05-07T04:22:38.553Z,5.90
2019-05-07T04:23:38.538Z,5.96
2019-05-07T04:24:38.533Z,6.01
2019-05-07T04:25:38.509Z,6.04
2019-05-07T04:26:38.499Z,5.96
2019-05-07T04:27:38.495Z,5.99
2019-05-07T04:28:43.786Z,6.06
2019-05-07T04:29:38.497Z,6.01
2019-05-07T04:30:38.453Z,6.11
2019-05-07T04:31:38.445Z,6.19
2019-05-07T04:32:38.433Z,6.09
2019-05-07T04:33:38.425Z,6.21
2019-05-07T04:34:38.423Z,6.27
2019-05-07T04:35:38.401Z,6.28
2019-05-07T04:36:38.397Z,6.36
2019-05-07T04:37:38.377Z,6.40
2019-05-07T04:38:38.376Z,6.30
2019-05-07T04:39:43.412Z,6.34
2019-05-07T04:40:38.367Z,6.34
2019-05-07T04:41:38.333Z,6.31
2019-05-07T04:42:38.320Z,6.44
2019-05-07T04:43:38.310Z,6.44
2019-05-07T04:44:38.326Z,6.52
2019-05-07T04:45:38.305Z,6.49
2019-05-07T04:46:38.275Z,6.48
2019-05-07T04:47:46.369Z,6.59
2019-05-07T04:48:39.253Z,6.61
2019-05-07T04:49:38.280Z,6.56
2019-05-07T04:50:47.353Z,6.40
2019-05-07T04:51:38.225Z,6.43
2019-05-07T04:52:38.214Z,6.46
2019-05-07T04:53:38.202Z,6.55
2019-05-07T04:54:38.194Z,6.61
2019-05-07T04:55:38.199Z,6.58
2019-05-07T04:56:38.164Z,6.64
2019-05-07T04:57:38.156Z,6.64
2019-05-07T04:58:38.141Z,6.76
2019-05-07T04:59:38.131Z,6.69
2019-05-07T05:00:38.132Z,6.69
2019-05-07T05:01:43.665Z,6.62
2019-05-07T05:02:38.101Z,6.64
2019-05-07T05:03:39.268Z,6.62
2019-05-07T05:04:38.080Z,6.61
2019-05-07T05:05:38.074Z,6.59
2019-05-07T05:06:38.052Z,6.67
2019-05-07T05:07:38.045Z,6.67
2019-05-07T05:08:38.034Z,6.71
2019-05-07T05:09:38.027Z,6.71
2019-05-07T05:10:38.028Z,6.76
2019-05-07T05:11:37.997Z,6.79
2019-05-07T05:12:43.117Z,6.84
2019-05-07T05:13:37.994Z,6.89
2019-05-07T05:14:37.965Z,6.91
2019-05-07T05:15:37.963Z,6.91
2019-05-07T05:16:37.942Z,6.97
2019-05-07T05:17:49.715Z,6.99
2019-05-07T05:18:38.921Z,6.99
2019-05-07T05:19:37.919Z,7.06
2019-05-07T05:20:37.924Z,6.98
2019-05-07T05:21:37.905Z,6.99
2019-05-07T05:22:37.875Z,7.09
2019-05-07T05:23:42.886Z,7.16
2019-05-07T05:24:37.850Z,7.21
2019-05-07T05:25:37.841Z,7.12
2019-05-07T05:26:37.839Z,7.21
2019-05-07T05:27:37.817Z,7.21
2019-05-07T05:28:37.804Z,7.16
2019-05-07T05:29:37.797Z,7.17
2019-05-07T05:30:37.784Z,7.27
2019-05-07T05:31:37.794Z,7.21
2019-05-07T05:32:37.761Z,7.27
2019-05-07T05:33:37.779Z,7.12
2019-05-07T05:34:42.764Z,7.17
2019-05-07T05:35:37.729Z,7.27
2019-05-07T05:36:37.732Z,7.31
2019-05-07T05:37:37.713Z,7.43
2019-05-07T05:38:37.697Z,7.32
2019-05-07T05:39:37.679Z,7.31
2019-05-07T05:40:37.689Z,7.37
2019-05-07T05:41:38.075Z,7.35
2019-05-07T05:42:37.650Z,7.40
2019-05-07T05:43:37.636Z,7.49
2019-05-07T05:44:37.637Z,7.61
2019-05-07T05:45:42.798Z,7.64
2019-05-07T05:46:37.612Z,7.67
2019-05-07T05:47:37.592Z,7.72
2019-05-07T05:48:37.596Z,7.75
2019-05-07T05:49:37.569Z,7.77
2019-05-07T05:50:37.560Z,7.77
2019-05-07T05:51:37.568Z,7.74
2019-05-07T05:52:37.538Z,7.87
2019-05-07T05:53:37.530Z,7.95
2019-05-07T05:54:37.528Z,8.04
2019-05-07T05:55:37.512Z,8.11
2019-05-07T05:56:42.749Z,8.29
2019-05-07T05:57:37.478Z,8.30
2019-05-07T05:58:37.466Z,8.43
2019-05-07T05:59:49.080Z,8.73
2019-05-07T06:00:38.446Z,8.91
2019-05-07T06:01:37.452Z,8.80
2019-05-07T06:02:37.427Z,8.73
2019-05-07T06:03:37.415Z,8.81
2019-05-07T06:04:37.401Z,8.79
2019-05-07T06:05:37.389Z,8.70
2019-05-07T06:06:37.403Z,8.63
2019-05-07T06:07:42.796Z,8.59
2019-05-07T06:08:37.367Z,8.70
2019-05-07T06:09:37.389Z,8.83
2019-05-07T06:10:37.333Z,8.98
2019-05-07T06:11:37.331Z,9.04
2019-05-07T06:12:37.309Z,9.04
2019-05-07T06:13:37.296Z,8.92
2019-05-07T06:14:37.295Z,8.92
2019-05-07T06:15:37.274Z,8.99
2019-05-07T06:16:37.289Z,9.15
2019-05-07T06:17:37.281Z,9.08
2019-05-07T06:18:42.266Z,9.04
2019-05-07T06:19:37.249Z,8.98
2019-05-07T06:20:37.222Z,8.86
2019-05-07T06:21:37.204Z,8.87
2019-05-07T06:22:37.226Z,8.89
2019-05-07T06:23:37.185Z,8.95
2019-05-07T06:24:37.173Z,8.94
2019-05-07T06:25:37.175Z,8.92
2019-05-07T06:26:37.151Z,8.94
2019-05-07T06:27:37.158Z,9.04
2019-05-07T06:28:37.162Z,9.11
2019-05-07T06:29:42.697Z,9.13
2019-05-07T06:30:37.117Z,9.24
2019-05-07T06:31:37.099Z,9.31
2019-05-07T06:32:37.123Z,9.56
2019-05-07T06:33:37.081Z,9.66
2019-05-07T06:34:37.066Z,9.69
2019-05-07T06:35:37.049Z,9.83
2019-05-07T06:36:37.040Z,10.02
2019-05-07T06:37:37.041Z,10.26
2019-05-07T06:38:37.036Z,10.26
2019-05-07T06:39:37.008Z,10.17
2019-05-07T06:40:42.413Z,10.11
2019-05-07T06:41:36.995Z,10.17
2019-05-07T06:42:36.981Z,10.29
2019-05-07T06:43:36.971Z,10.47
2019-05-07T06:44:36.954Z,10.52
2019-05-07T06:45:36.941Z,10.66
2019-05-07T06:46:38.717Z,10.76
2019-05-07T06:47:36.943Z,11.00
2019-05-07T06:48:42.436Z,10.88
2019-05-07T06:49:37.891Z,11.10
2019-05-07T06:50:36.882Z,11.06
2019-05-07T06:51:42.059Z,10.82
2019-05-07T06:52:36.879Z,10.56
2019-05-07T06:53:36.850Z,10.36
2019-05-07T06:54:36.837Z,10.40
2019-05-07T06:55:36.829Z,10.66
2019-05-07T06:56:36.818Z,10.67
2019-05-07T06:57:36.814Z,10.63
2019-05-07T06:58:36.792Z,10.64
2019-05-07T06:59:36.784Z,10.64
2019-05-07T07:00:36.766Z,10.60
2019-05-07T07:01:36.758Z,10.63
2019-05-07T07:02:42.019Z,10.64
2019-05-07T07:03:36.741Z,10.67
2019-05-07T07:04:36.779Z,10.67
2019-05-07T07:05:36.710Z,10.70
2019-05-07T07:06:36.699Z,10.41
2019-05-07T07:07:37.520Z,10.33
2019-05-07T07:08:36.695Z,10.40
2019-05-07T07:09:36.673Z,10.40
2019-05-07T07:10:36.654Z,10.33
2019-05-07T07:11:36.679Z,10.42
2019-05-07T07:12:36.635Z,10.34
2019-05-07T07:13:42.704Z,10.42
2019-05-07T07:14:36.607Z,10.45
2019-05-07T07:15:36.607Z,10.47
2019-05-07T07:16:36.585Z,10.47
2019-05-07T07:17:36.573Z,10.55
2019-05-07T07:18:48.402Z,10.34
2019-05-07T07:19:37.557Z,10.25
2019-05-07T07:20:36.549Z,10.40
2019-05-07T07:21:36.531Z,10.34
2019-05-07T07:22:36.518Z,10.48
2019-05-07T07:23:36.518Z,10.60
2019-05-07T07:24:42.416Z,10.63
2019-05-07T07:25:36.483Z,10.51
2019-05-07T07:26:36.471Z,10.64
2019-05-07T07:27:36.487Z,10.78
2019-05-07T07:28:36.471Z,10.89
2019-05-07T07:29:36.437Z,10.97
2019-05-07T07:30:36.432Z,10.94
2019-05-07T07:31:36.425Z,11.02
2019-05-07T07:32:36.424Z,11.04
2019-05-07T07:33:36.405Z,11.11
2019-05-07T07:34:36.381Z,11.19
2019-05-07T07:35:42.835Z,11.28
2019-05-07T07:36:36.360Z,11.18
2019-05-07T07:37:36.356Z,11.03
2019-05-07T07:38:36.359Z,10.91
2019-05-07T07:39:36.331Z,11.03
2019-05-07T07:40:36.324Z,10.96
2019-05-07T07:41:36.301Z,11.06
2019-05-07T07:42:36.307Z,11.14
2019-05-07T07:43:36.300Z,11.22
2019-05-07T07:44:36.272Z,11.25
2019-05-07T07:45:36.262Z,11.28
2019-05-07T07:46:42.463Z,11.25
2019-05-07T07:47:36.249Z,11.22
2019-05-07T07:48:36.239Z,11.03
2019-05-07T07:49:36.224Z,11.04
2019-05-07T07:50:36.202Z,11.21
2019-05-07T07:51:41.146Z,11.22
2019-05-07T07:52:37.178Z,11.35
2019-05-07T07:53:36.195Z,11.37
2019-05-07T07:54:36.175Z,11.46
2019-05-07T07:55:36.148Z,11.51
2019-05-07T07:56:49.051Z,11.44
2019-05-07T07:57:42.712Z,11.57
2019-05-07T07:58:36.110Z,11.52
2019-05-07T07:59:36.152Z,11.46
2019-05-07T08:00:36.110Z,11.61
2019-05-07T08:01:36.080Z,11.55
2019-05-07T08:02:36.075Z,11.67
2019-05-07T08:03:36.052Z,11.69
2019-05-07T08:04:36.057Z,11.65
2019-05-07T08:05:36.030Z,11.78
2019-05-07T08:06:36.046Z,11.85
2019-05-07T08:07:36.009Z,12.01
2019-05-07T08:08:42.445Z,11.98
2019-05-07T08:09:36.017Z,12.10
2019-05-07T08:10:35.976Z,12.05
2019-05-07T08:11:35.966Z,12.10
2019-05-07T08:12:35.966Z,12.01
2019-05-07T08:13:35.942Z,11.96
2019-05-07T08:14:35.944Z,11.95
2019-05-07T08:15:35.917Z,12.07
2019-05-07T08:16:35.909Z,12.05
2019-05-07T08:17:35.894Z,12.17
2019-05-07T08:18:35.942Z,12.01
2019-05-07T08:19:42.916Z,12.04
2019-05-07T08:20:35.859Z,12.07
2019-05-07T08:21:35.854Z,12.10
2019-05-07T08:22:35.840Z,12.07
2019-05-07T08:23:35.831Z,12.17
2019-05-07T08:24:35.830Z,12.20
2019-05-07T08:25:35.806Z,12.37
2019-05-07T08:26:35.796Z,12.31
2019-05-07T08:27:35.799Z,12.38
2019-05-07T08:28:35.781Z,12.42
2019-05-07T08:29:35.769Z,12.45
2019-05-07T08:30:42.030Z,12.47
2019-05-07T08:31:35.734Z,12.47
2019-05-07T08:32:35.727Z,12.62
2019-05-07T08:33:35.713Z,12.59
2019-05-07T08:34:35.712Z,12.68
2019-05-07T08:35:35.688Z,12.59
2019-05-07T08:36:35.686Z,12.60
2019-05-07T08:37:35.670Z,12.70
2019-05-07T08:38:35.659Z,12.71
2019-05-07T08:39:35.656Z,12.52
2019-05-07T08:40:35.644Z,12.56
2019-05-07T08:41:42.290Z,12.59
2019-05-07T08:42:35.614Z,12.54
2019-05-07T08:43:35.612Z,12.47
2019-05-07T08:44:35.598Z,12.57
2019-05-07T08:45:35.690Z,12.50
2019-05-07T08:46:35.567Z,12.59
2019-05-07T08:47:35.552Z,12.60
2019-05-07T08:48:35.553Z,12.65
2019-05-07T08:49:39.696Z,12.82
2019-05-07T08:50:35.532Z,12.86
2019-05-07T08:51:35.512Z,12.82
2019-05-07T08:52:42.009Z,12.89
2019-05-07T08:53:35.483Z,12.97
2019-05-07T08:54:35.506Z,13.15
2019-05-07T08:55:35.461Z,13.05
2019-05-07T08:56:35.451Z,12.95
2019-05-07T08:57:35.441Z,12.90
2019-05-07T08:58:35.431Z,12.86
2019-05-07T08:59:35.438Z,12.86
2019-05-07T09:00:35.418Z,12.87
2019-05-07T09:01:35.393Z,12.92
2019-05-07T09:02:35.381Z,12.83
2019-05-07T09:03:42.753Z,12.96
2019-05-07T09:04:35.365Z,12.92
2019-05-07T09:05:35.372Z,12.96
2019-05-07T09:06:35.360Z,13.03
2019-05-07T09:07:35.357Z,12.96
2019-05-07T09:08:35.316Z,13.04
2019-05-07T09:09:35.306Z,13.10
2019-05-07T09:10:35.312Z,12.97
2019-05-07T09:11:35.295Z,13.01
2019-05-07T09:12:35.275Z,13.08
2019-05-07T09:13:35.273Z,13.04
2019-05-07T09:14:42.349Z,13.05
2019-05-07T09:15:35.253Z,13.17
2019-05-07T09:16:35.245Z,13.22
2019-05-07T09:17:35.214Z,13.38
2019-05-07T09:18:35.221Z,13.36
2019-05-07T09:19:47.217Z,13.22
2019-05-07T09:20:36.198Z,13.07
2019-05-07T09:21:35.178Z,12.95
2019-05-07T09:22:35.158Z,12.92
2019-05-07T09:23:35.158Z,13.17
2019-05-07T09:24:35.144Z,13.42
2019-05-07T09:25:41.648Z,13.51
2019-05-07T09:26:35.125Z,13.57
2019-05-07T09:27:35.113Z,13.46
2019-05-07T09:28:35.139Z,13.66
2019-05-07T09:29:35.097Z,13.64
2019-05-07T09:30:35.133Z,13.67
2019-05-07T09:31:35.059Z,13.63
2019-05-07T09:32:35.067Z,13.57
2019-05-07T09:33:35.059Z,13.67
2019-05-07T09:34:35.033Z,13.71
2019-05-07T09:35:35.031Z,13.73
2019-05-07T09:36:40.060Z,13.87
2019-05-07T09:37:35.013Z,13.64
2019-05-07T09:38:34.982Z,13.52
2019-05-07T09:39:34.969Z,13.49
2019-05-07T09:40:34.968Z,13.55
2019-05-07T09:41:34.962Z,13.45
2019-05-07T09:42:34.940Z,13.64
2019-05-07T09:43:34.926Z,13.87
2019-05-07T09:44:34.921Z,14.00
2019-05-07T09:45:34.908Z,13.89
2019-05-07T09:46:34.909Z,13.95
2019-05-07T09:47:41.805Z,14.12
2019-05-07T09:48:34.869Z,14.12
2019-05-07T09:49:34.858Z,14.20
2019-05-07T09:50:34.855Z,14.15
2019-05-07T09:51:34.874Z,14.24
2019-05-07T09:52:34.821Z,14.22
2019-05-07T09:53:34.807Z,14.42
2019-05-07T09:54:34.799Z,14.37
2019-05-07T09:55:34.793Z,14.39
2019-05-07T09:56:34.789Z,14.32
2019-05-07T09:57:34.959Z,14.42
2019-05-07T09:58:39.793Z,14.33
2019-05-07T09:59:34.739Z,14.42
2019-05-07T10:00:34.751Z,14.45
2019-05-07T10:01:34.743Z,14.55
2019-05-07T10:02:34.708Z,14.55
2019-05-07T10:03:34.691Z,14.57
2019-05-07T10:04:34.683Z,14.70
2019-05-07T10:05:34.671Z,14.98
2019-05-07T10:06:34.672Z,15.03
2019-05-07T10:07:34.644Z,14.96
2019-05-07T10:08:34.637Z,14.92
2019-05-07T10:09:39.648Z,15.01
2019-05-07T10:10:34.614Z,14.96
2019-05-07T10:11:34.635Z,14.94
2019-05-07T10:12:34.604Z,15.01
2019-05-07T10:13:34.583Z,15.02
2019-05-07T10:14:34.579Z,14.95
2019-05-07T10:15:34.610Z,14.98
2019-05-07T10:16:34.546Z,14.91
2019-05-07T10:17:34.546Z,15.13
2019-05-07T10:18:34.540Z,15.21
2019-05-07T10:19:34.542Z,15.27
2019-05-07T10:20:41.976Z,15.09
2019-05-07T10:21:34.495Z,14.81
2019-05-07T10:22:34.490Z,14.81
2019-05-07T10:23:34.475Z,14.95
2019-05-07T10:24:34.471Z,14.98
2019-05-07T10:25:34.446Z,14.95
2019-05-07T10:26:34.446Z,14.91
2019-05-07T10:27:34.475Z,14.94
2019-05-07T10:28:34.410Z,15.01
2019-05-07T10:29:34.433Z,15.02
2019-05-07T10:30:34.396Z,15.16
2019-05-07T10:31:39.401Z,15.16
2019-05-07T10:32:34.385Z,15.19
2019-05-07T10:33:34.354Z,15.14
2019-05-07T10:34:34.350Z,15.02
2019-05-07T10:35:34.333Z,14.96
2019-05-07T10:36:34.340Z,14.95
2019-05-07T10:37:34.337Z,15.03
2019-05-07T10:38:34.296Z,15.06
2019-05-07T10:39:34.285Z,14.96
2019-05-07T10:40:34.294Z,14.84
2019-05-07T10:41:34.296Z,14.65
2019-05-07T10:42:39.286Z,14.75
2019-05-07T10:43:34.255Z,14.57
2019-05-07T10:44:34.227Z,14.60
2019-05-07T10:45:34.221Z,14.68
2019-05-07T10:46:34.208Z,14.84
2019-05-07T10:47:34.210Z,14.80
2019-05-07T10:48:34.180Z,14.99
2019-05-07T10:49:34.169Z,15.02
2019-05-07T10:50:38.920Z,15.14
2019-05-07T10:51:35.146Z,15.28
2019-05-07T10:52:34.149Z,15.34
2019-05-07T10:53:39.152Z,15.38
2019-05-07T10:54:34.113Z,15.49
2019-05-07T10:55:34.105Z,15.51
2019-05-07T10:56:34.095Z,15.49
2019-05-07T10:57:34.110Z,15.47
2019-05-07T10:58:34.067Z,15.53
2019-05-07T10:59:34.058Z,15.49
2019-05-07T11:00:34.046Z,15.47
2019-05-07T11:01:34.037Z,15.36
2019-05-07T11:02:34.025Z,15.46
2019-05-07T11:03:34.028Z,15.41
2019-05-07T11:04:42.782Z,15.29
2019-05-07T11:05:34.990Z,15.38
2019-05-07T11:06:33.978Z,15.34
2019-05-07T11:07:33.970Z,15.38
2019-05-07T11:08:33.974Z,15.32
2019-05-07T11:09:33.944Z,15.32
2019-05-07T11:10:33.932Z,15.49
2019-05-07T11:11:33.920Z,15.50
2019-05-07T11:12:33.914Z,15.69
2019-05-07T11:13:33.917Z,15.89
2019-05-07T11:14:33.888Z,15.89
2019-05-07T11:15:38.900Z,15.94
2019-05-07T11:16:33.865Z,15.96
2019-05-07T11:17:33.852Z,16.00
2019-05-07T11:18:33.856Z,15.92
2019-05-07T11:19:33.839Z,16.01
2019-05-07T11:20:46.481Z,15.90
2019-05-07T11:21:34.840Z,16.01
2019-05-07T11:22:33.796Z,15.84
2019-05-07T11:23:33.798Z,15.84
2019-05-07T11:24:33.785Z,15.92
2019-05-07T11:25:33.767Z,16.00
2019-05-07T11:26:38.830Z,16.01
2019-05-07T11:27:33.750Z,16.09
2019-05-07T11:28:33.740Z,16.24
2019-05-07T11:29:36.489Z,16.25
2019-05-07T11:30:33.709Z,16.31
2019-05-07T11:31:33.711Z,16.17
2019-05-07T11:32:33.685Z,16.14
2019-05-07T11:33:33.682Z,16.35
2019-05-07T11:34:33.667Z,16.49
2019-05-07T11:35:33.654Z,16.56
2019-05-07T11:36:34.386Z,16.30
2019-05-07T11:37:38.651Z,16.28
2019-05-07T11:38:33.632Z,16.11
2019-05-07T11:39:33.607Z,16.15
2019-05-07T11:40:34.840Z,16.04
2019-05-07T11:41:33.585Z,16.34
2019-05-07T11:42:33.569Z,16.34
2019-05-07T11:43:33.580Z,16.58
2019-05-07T11:44:33.547Z,16.61
2019-05-07T11:45:33.535Z,16.89
2019-05-07T11:46:33.534Z,17.04
2019-05-07T11:47:33.518Z,16.97
2019-05-07T11:48:38.538Z,16.96
2019-05-07T11:49:33.490Z,16.73
2019-05-07T11:50:33.482Z,16.42
2019-05-07T11:51:33.640Z,16.42
2019-05-07T11:52:35.753Z,16.57
2019-05-07T11:53:33.443Z,16.78
2019-05-07T11:54:33.450Z,16.85
2019-05-07T11:55:33.424Z,16.88
2019-05-07T11:56:33.411Z,16.97
2019-05-07T11:57:33.401Z,17.19
2019-05-07T11:58:33.390Z,17.41
2019-05-07T11:59:38.412Z,17.58
2019-05-07T12:00:33.369Z,17.64
2019-05-07T12:01:43.867Z,17.79
2019-05-07T12:02:34.358Z,18.15
2019-05-07T12:03:33.343Z,17.84
2019-05-07T12:04:33.366Z,17.33
2019-05-07T12:05:33.393Z,17.26
2019-05-07T12:06:33.303Z,17.63
2019-05-07T12:07:33.290Z,17.70
2019-05-07T12:08:42.804Z,17.54
2019-05-07T12:09:34.277Z,17.46
2019-05-07T12:10:38.281Z,17.31
2019-05-07T12:11:33.242Z,17.59
2019-05-07T12:12:33.230Z,17.41
2019-05-07T12:13:33.236Z,17.51
2019-05-07T12:14:34.970Z,17.31
2019-05-07T12:15:33.196Z,17.22
2019-05-07T12:16:33.186Z,17.03
2019-05-07T12:17:33.177Z,16.89
2019-05-07T12:18:33.163Z,17.00
2019-05-07T12:19:33.226Z,17.11
2019-05-07T12:20:33.141Z,17.07
2019-05-07T12:21:38.161Z,16.98
2019-05-07T12:22:33.124Z,16.66
2019-05-07T12:23:33.343Z,16.71
2019-05-07T12:24:33.109Z,16.50
2019-05-07T12:25:33.087Z,17.04
2019-05-07T12:26:33.074Z,17.04
2019-05-07T12:27:33.067Z,17.08
2019-05-07T12:28:33.068Z,17.15
2019-05-07T12:29:33.082Z,17.30
2019-05-07T12:30:33.034Z,17.75
2019-05-07T12:31:33.639Z,18.10
2019-05-07T12:32:38.036Z,18.11
2019-05-07T12:33:33.020Z,17.66
2019-05-07T12:34:33.015Z,17.68
2019-05-07T12:35:32.978Z,17.12
2019-05-07T12:36:33.007Z,16.89
2019-05-07T12:37:32.974Z,16.93
2019-05-07T12:38:32.961Z,17.07
2019-05-07T12:39:32.933Z,17.14
2019-05-07T12:40:32.937Z,17.03
2019-05-07T12:41:34.023Z,17.18
2019-05-07T12:42:32.909Z,17.16
2019-05-07T12:43:37.951Z,17.22
2019-05-07T12:44:32.909Z,17.26
2019-05-07T12:45:32.873Z,17.11
2019-05-07T12:46:33.366Z,17.11
2019-05-07T12:47:32.839Z,17.07
2019-05-07T12:48:32.846Z,17.08
2019-05-07T12:49:32.816Z,17.04
2019-05-07T12:50:32.819Z,16.98
2019-05-07T12:51:37.216Z,16.82
2019-05-07T12:52:33.797Z,16.75
2019-05-07T12:53:32.783Z,16.83
2019-05-07T12:54:37.780Z,16.79
2019-05-07T12:55:32.759Z,16.83
2019-05-07T12:56:32.741Z,16.71
2019-05-07T12:57:32.727Z,16.75
2019-05-07T12:58:32.714Z,16.78
2019-05-07T12:59:32.717Z,16.78
2019-05-07T13:00:32.738Z,16.64
2019-05-07T13:01:32.911Z,16.57
2019-05-07T13:02:40.579Z,16.53
2019-05-07T13:03:33.666Z,16.71
2019-05-07T13:04:32.661Z,16.64
2019-05-07T13:05:37.676Z,16.57